Time;durP1;ratioP1;P1;durP2;ratioP2;P2;SDS_P1;SDS_P2;PMS_P1;PMS_P2;Temp;Humidity;BMP_temperature;BMP_pressure;BME280_temperature;BME280_humidity;BME280_pressure;Samples;Min_cycle;Max_cycle;Signal;HPM_P1;HPM_P2
2022/06/12 00:00:55;;;;;;;14.30;13.20;;;16.80;99.90;;;;;;4962320;28;20460;-58
2022/06/12 00:03:23;;;;;;;14.30;13.07;;;16.70;99.90;;;;;;4968141;28;20539;-58
2022/06/12 00:05:51;;;;;;;14.00;12.80;;;16.70;99.90;;;;;;4961641;28;20989;-58
2022/06/12 00:08:18;;;;;;;13.63;12.43;;;16.60;99.90;;;;;;4969346;28;21356;-58
2022/06/12 00:10:47;;;;;;;13.60;12.40;;;16.60;99.90;;;;;;4968109;28;20549;-57
2022/06/12 00:13:15;;;;;;;14.80;13.50;;;16.50;99.90;;;;;;4966614;28;20937;-57
2022/06/12 00:15:41;;;;;;;14.10;13.00;;;16.50;99.90;;;;;;4968806;28;20439;-59
2022/06/12 00:18:07;;;;;;;14.20;13.00;;;16.50;99.90;;;;;;4967459;28;20448;-59
2022/06/12 00:20:33;;;;;;;15.13;13.83;;;16.40;99.90;;;;;;4962642;28;20943;-59
2022/06/12 00:22:59;;;;;;;15.30;14.00;;;16.40;99.90;;;;;;4965481;28;20206;-58
2022/06/12 00:25:28;;;;;;;15.23;13.93;;;16.30;99.90;;;;;;4956691;28;20469;-58
2022/06/12 00:27:54;;;;;;;15.73;14.40;;;16.30;99.90;;;;;;4969742;28;20437;-59
2022/06/12 00:30:23;;;;;;;15.37;14.07;;;16.20;99.90;;;;;;4966201;28;20440;-59
2022/06/12 00:32:52;;;;;;;14.97;13.57;;;16.20;99.90;;;;;;4968007;28;20197;-59
2022/06/12 00:35:38;;;;;;;16.07;14.40;;;16.20;99.90;;;;;;4964259;28;20438;-59
2022/06/12 00:38:04;;;;;;;14.80;13.63;;;16.10;99.90;;;;;;4963432;28;20538;-54
2022/06/12 00:40:30;;;;;;;14.57;13.40;;;16.10;99.90;;;;;;4967640;28;20547;-58
2022/06/12 00:43:00;;;;;;;14.40;13.23;;;16.00;99.90;;;;;;4961475;28;20203;-58
2022/06/12 00:45:35;;;;;;;13.67;12.60;;;16.00;99.90;;;;;;4970545;28;20947;-58
2022/06/12 00:48:06;;;;;;;14.57;13.27;;;16.00;99.90;;;;;;4963150;28;20440;-57
2022/06/12 00:50:33;;;;;;;14.90;13.40;;;15.90;99.90;;;;;;4969244;28;20437;-57
2022/06/12 00:52:58;;;;;;;14.40;13.20;;;15.90;99.90;;;;;;4965929;28;20503;-56
2022/06/12 00:55:45;;;;;;;15.60;14.20;;;15.80;99.90;;;;;;4970340;28;20789;-53
2022/06/12 00:58:15;;;;;;;14.33;13.17;;;15.80;99.90;;;;;;4967124;28;20465;-55
2022/06/12 01:00:41;;;;;;;14.70;13.50;;;15.80;99.90;;;;;;4977314;28;20434;-56
2022/06/12 01:03:07;;;;;;;13.60;12.50;;;15.70;99.90;;;;;;4968449;28;20531;-57
2022/06/12 01:08:19;;;;;;;14.03;12.83;;;15.70;99.90;;;;;;4960516;28;20444;-56
2022/06/12 01:10:50;;;;;;;14.57;13.30;;;15.60;99.90;;;;;;4964843;28;20455;-57
2022/06/12 01:13:22;;;;;;;14.67;13.37;;;15.50;99.90;;;;;;4964727;28;20925;-57
2022/06/12 01:16:00;;;;;;;14.50;13.20;;;15.50;99.90;;;;;;4968395;28;20808;-58
2022/06/12 01:18:37;;;;;;;16.60;13.77;;;15.50;99.90;;;;;;4969124;28;20471;-59
2022/06/12 01:21:10;;;;;;;13.60;12.40;;;15.50;99.90;;;;;;4967537;28;20459;-57
2022/06/12 01:23:53;;;;;;;14.63;13.40;;;15.40;99.90;;;;;;4960747;28;20444;-58
2022/06/12 01:26:43;;;;;;;14.53;13.40;;;15.40;99.90;;;;;;4967835;28;20470;-56
2022/06/12 01:29:18;;;;;;;14.27;12.97;;;15.30;99.90;;;;;;4973507;28;21287;-58
2022/06/12 01:31:56;;;;;;;14.67;13.30;;;15.30;99.90;;;;;;4964596;28;20447;-58
2022/06/12 01:34:25;;;;;;;15.67;14.30;;;15.20;99.90;;;;;;4969047;28;20444;-58
2022/06/12 01:37:14;;;;;;;13.93;12.60;;;15.20;99.90;;;;;;4966816;28;21165;-57
2022/06/12 01:40:04;;;;;;;13.50;12.40;;;15.20;99.90;;;;;;4973574;28;20798;-58
2022/06/12 01:42:36;;;;;;;14.00;12.70;;;15.10;99.90;;;;;;4969842;28;20839;-58
2022/06/12 01:45:17;;;;;;;14.07;12.90;;;15.10;99.90;;;;;;4973092;28;21137;-57
2022/06/12 01:47:58;;;;;;;14.30;13.00;;;15.00;99.90;;;;;;4964458;28;20930;-57
2022/06/12 01:51:13;;;;;;;14.47;13.10;;;15.00;99.90;;;;;;4975768;28;20436;-57
2022/06/12 01:53:59;;;;;;;14.37;13.00;;;15.00;99.90;;;;;;4964399;28;20453;-56
2022/06/12 01:56:40;;;;;;;14.37;13.20;;;14.90;99.90;;;;;;4975078;28;20491;-58
2022/06/12 01:59:16;;;;;;;15.03;13.80;;;14.90;99.90;;;;;;4974009;28;20962;-58
2022/06/12 02:01:54;;;;;;;14.13;13.00;;;14.80;99.90;;;;;;4973209;28;20462;-57
2022/06/12 02:04:24;;;;;;;15.30;14.00;;;14.70;99.90;;;;;;4974553;28;20463;-52
2022/06/12 02:07:01;;;;;;;14.53;13.27;;;14.70;99.90;;;;;;4973778;28;20447;-56
2022/06/12 02:09:36;;;;;;;14.97;13.23;;;14.60;99.90;;;;;;4974648;28;20519;-55
2022/06/12 02:15:11;;;;;;;14.73;13.43;;;14.60;99.90;;;;;;4969965;28;20507;-57
2022/06/12 02:17:47;;;;;;;13.73;12.63;;;14.60;99.90;;;;;;4972695;28;20444;-58
2022/06/12 02:20:18;;;;;;;14.93;13.57;;;14.60;99.90;;;;;;4973572;28;20942;-57
2022/06/12 02:22:45;;;;;;;13.63;12.43;;;14.60;99.90;;;;;;4972086;28;20440;-58
2022/06/12 02:25:17;;;;;;;13.97;12.80;;;14.60;99.90;;;;;;4970960;28;20482;-57
2022/06/12 02:27:52;;;;;;;13.90;12.80;;;14.60;99.90;;;;;;4972152;28;20538;-58
2022/06/12 02:30:25;;;;;;;14.97;13.60;;;14.60;99.90;;;;;;4972480;28;21015;-58
2022/06/12 02:33:18;;;;;;;14.63;13.23;;;14.60;99.90;;;;;;4974530;28;20443;-59
2022/06/12 02:35:54;;;;;;;14.50;13.20;;;14.50;99.90;;;;;;4974023;28;20536;-58
2022/06/12 02:38:25;;;;;;;14.30;13.10;;;14.50;99.90;;;;;;4972951;28;20474;-55
2022/06/12 02:40:57;;;;;;;14.07;12.77;;;14.50;99.90;;;;;;4987247;28;20444;-57
2022/06/12 02:43:29;;;;;;;14.33;12.93;;;14.40;99.90;;;;;;4972792;28;20448;-58
2022/06/12 02:46:01;;;;;;;14.80;13.60;;;14.40;99.90;;;;;;4969730;28;20559;-58
2022/06/12 02:48:28;;;;;;;14.50;13.30;;;14.40;99.90;;;;;;4971579;28;20451;-59
2022/06/12 02:51:05;;;;;;;14.50;13.20;;;14.40;99.90;;;;;;4966819;28;20589;-59
2022/06/12 02:54:01;;;;;;;14.03;12.83;;;14.40;99.90;;;;;;4971571;28;20440;-58
2022/06/12 02:56:55;;;;;;;14.33;13.13;;;14.40;99.90;;;;;;4966165;28;21033;-58
2022/06/12 02:59:42;;;;;;;15.13;13.80;;;14.40;99.90;;;;;;4970761;28;20444;-56
2022/06/12 03:02:08;;;;;;;13.63;12.53;;;14.30;99.90;;;;;;4969406;28;20502;-56
2022/06/12 03:04:45;;;;;;;14.57;13.20;;;14.30;99.90;;;;;;4967775;28;20476;-56
2022/06/12 03:07:11;;;;;;;14.90;13.70;;;14.30;99.90;;;;;;4963239;28;20220;-55
2022/06/12 03:09:38;;;;;;;14.30;13.03;;;14.40;99.90;;;;;;4969617;28;20431;-58
2022/06/12 03:12:06;;;;;;;14.70;13.40;;;14.30;99.90;;;;;;4968891;28;20483;-58
2022/06/12 03:14:31;;;;;;;14.83;13.53;;;14.30;99.90;;;;;;4969272;28;20435;-57
2022/06/12 03:16:57;;;;;;;14.90;13.70;;;14.20;99.90;;;;;;4972060;28;20444;-56
2022/06/12 03:19:30;;;;;;;14.83;13.53;;;14.20;99.90;;;;;;4971369;28;20264;-58
2022/06/12 03:22:10;;;;;;;15.83;14.37;;;14.20;99.90;;;;;;4970436;28;20280;-57
2022/06/12 03:25:08;;;;;;;13.90;12.63;;;14.30;99.90;;;;;;4969223;28;20550;-57
2022/06/12 03:28:15;;;;;;;14.47;13.13;;;14.30;99.90;;;;;;4969627;28;20547;-56
2022/06/12 03:30:53;;;;;;;14.43;13.23;;;14.30;99.90;;;;;;4970928;28;20444;-58
2022/06/12 03:33:33;;;;;;;14.33;13.23;;;14.30;99.90;;;;;;4969200;28;20803;-54
2022/06/12 03:36:04;;;;;;;14.23;12.90;;;14.30;99.90;;;;;;4969249;28;21154;-58
2022/06/12 03:38:53;;;;;;;14.90;13.60;;;14.30;99.90;;;;;;4968974;28;20449;-59
2022/06/12 03:41:33;;;;;;;15.10;13.70;;;14.30;99.90;;;;;;4964419;28;20476;-57
2022/06/12 03:44:03;;;;;;;13.03;11.87;;;14.40;99.90;;;;;;4971144;28;20446;-58
2022/06/12 03:46:58;;;;;;;13.73;12.43;;;14.40;99.90;;;;;;4965201;28;20469;-59
2022/06/12 03:49:44;;;;;;;13.50;12.33;;;14.50;99.90;;;;;;4968651;28;20440;-58
2022/06/12 03:52:40;;;;;;;14.03;12.70;;;14.50;99.90;;;;;;4967670;28;20993;-57
2022/06/12 03:57:50;;;;;;;13.87;12.67;;;14.50;99.90;;;;;;4966716;28;20448;-58
2022/06/12 03:58:15;;;;;;;13.57;12.27;;;14.50;99.90;;;;;;4964083;28;20946;-57
2022/06/12 04:00:43;;;;;;;14.73;13.53;;;14.50;99.90;;;;;;4971658;28;20442;-58
2022/06/12 04:03:30;;;;;;;13.87;12.70;;;14.50;99.90;;;;;;4966230;28;20425;-58
2022/06/12 04:06:11;;;;;;;14.20;13.00;;;14.60;99.90;;;;;;4969820;28;20456;-58
2022/06/12 04:08:53;;;;;;;13.23;12.03;;;14.60;99.90;;;;;;4969913;28;20441;-59
2022/06/12 04:11:22;;;;;;;14.00;12.90;;;14.70;99.90;;;;;;4969985;28;20547;-56
2022/06/12 04:13:49;;;;;;;16.53;12.40;;;14.70;99.90;;;;;;4970406;28;20436;-57
2022/06/12 04:16:43;;;;;;;13.53;12.33;;;14.70;99.90;;;;;;4969690;28;20772;-60
2022/06/12 04:19:14;;;;;;;14.40;13.20;;;14.80;99.90;;;;;;4968320;28;20437;-57
2022/06/12 04:22:01;;;;;;;13.67;12.47;;;14.80;99.90;;;;;;4969978;28;20519;-58
2022/06/12 04:24:34;;;;;;;14.00;12.70;;;14.90;99.90;;;;;;4969013;28;20440;-58
2022/06/12 04:27:07;;;;;;;12.40;11.37;;;15.00;99.90;;;;;;4969640;28;20432;-57
2022/06/12 04:29:39;;;;;;;13.20;12.00;;;15.10;99.90;;;;;;4966957;28;20440;-56
2022/06/12 04:32:07;;;;;;;14.87;13.37;;;15.10;99.90;;;;;;4968907;28;20432;-57
2022/06/12 04:34:38;;;;;;;13.03;11.93;;;15.20;99.90;;;;;;4969654;28;20434;-57
2022/06/12 04:37:19;;;;;;;13.50;12.30;;;15.30;99.90;;;;;;4969218;28;20494;-58
2022/06/12 04:39:47;;;;;;;13.60;12.13;;;15.40;99.90;;;;;;4967153;28;20432;-58
2022/06/12 04:42:15;;;;;;;12.47;11.37;;;15.50;99.90;;;;;;4963922;28;20440;-57
2022/06/12 04:44:41;;;;;;;12.47;11.17;;;15.70;99.90;;;;;;4966308;28;20812;-58
2022/06/12 04:47:10;;;;;;;12.23;11.23;;;15.90;99.90;;;;;;4967957;28;20494;-58
2022/06/12 04:49:36;;;;;;;12.13;11.03;;;16.10;99.90;;;;;;4968678;28;20946;-58
2022/06/12 04:52:05;;;;;;;11.97;10.97;;;16.30;99.90;;;;;;4967654;28;20530;-58
2022/06/12 04:54:31;;;;;;;12.60;11.40;;;16.50;99.90;;;;;;4962104;28;20431;-58
2022/06/12 04:56:58;;;;;;;12.20;11.10;;;16.70;99.90;;;;;;4965437;28;20569;-58
2022/06/12 04:59:24;;;;;;;11.07;10.17;;;16.90;99.90;;;;;;4962489;28;20439;-56
2022/06/12 05:01:50;;;;;;;11.50;10.50;;;17.10;99.90;;;;;;4964580;28;20443;-54
2022/06/12 05:04:17;;;;;;;10.80;9.90;;;17.20;99.90;;;;;;4969416;28;20909;-57
2022/06/12 05:06:44;;;;;;;10.63;9.70;;;17.30;99.90;;;;;;4958211;28;20448;-58
2022/06/12 05:09:12;;;;;;;10.87;9.90;;;17.50;99.90;;;;;;4957224;28;20425;-57
2022/06/12 05:11:37;;;;;;;10.70;9.90;;;17.60;99.90;;;;;;4959561;28;20435;-58
2022/06/12 05:14:04;;;;;;;10.57;9.77;;;17.70;99.90;;;;;;4964936;28;21162;-57
2022/06/12 05:16:32;;;;;;;11.20;10.30;;;17.70;99.90;;;;;;4969323;28;20181;-58
2022/06/12 05:18:58;;;;;;;10.90;10.00;;;17.70;99.90;;;;;;4970413;28;20458;-57
2022/06/12 05:21:26;;;;;;;11.00;10.20;;;17.70;99.90;;;;;;4962830;28;21027;-56
2022/06/12 05:23:52;;;;;;;10.63;9.93;;;17.80;99.90;;;;;;4950930;28;20440;-58
2022/06/12 05:26:19;;;;;;;11.53;10.53;;;17.90;99.90;;;;;;4946467;28;20476;-55
2022/06/12 05:28:46;;;;;;;9.90;9.20;;;17.90;99.90;;;;;;4946204;28;20210;-56
2022/06/12 05:31:11;;;;;;;10.80;10.00;;;17.90;99.90;;;;;;4945359;28;20519;-57
2022/06/12 05:33:37;;;;;;;10.90;10.00;;;17.90;99.90;;;;;;4956028;28;20507;-55
2022/06/12 05:36:04;;;;;;;10.23;9.43;;;18.10;99.90;;;;;;4944799;28;20255;-55
2022/06/12 05:38:30;;;;;;;10.53;9.73;;;18.30;99.90;;;;;;4944024;28;20209;-55
2022/06/12 05:40:55;;;;;;;10.73;10.00;;;18.40;99.90;;;;;;4963804;28;20510;-57
2022/06/12 05:43:21;;;;;;;10.33;9.53;;;18.50;99.90;;;;;;4962664;28;20193;-57
2022/06/12 05:45:47;;;;;;;11.30;10.40;;;18.70;99.90;;;;;;4968590;28;20267;-56
2022/06/12 05:48:18;;;;;;;9.80;9.10;;;18.80;99.90;;;;;;4966171;28;20450;-55
2022/06/12 05:50:53;;;;;;;10.53;9.73;;;18.90;99.90;;;;;;4970579;28;21027;-52
2022/06/12 05:53:21;;;;;;;10.93;10.13;;;19.10;99.90;;;;;;4956732;28;20443;-58
2022/06/12 05:55:47;;;;;;;10.57;9.77;;;19.20;99.90;;;;;;4982065;28;20539;-55
2022/06/12 05:58:14;;;;;;;9.77;9.07;;;19.30;99.90;;;;;;4957872;28;20441;-57
2022/06/12 06:00:41;;;;;;;10.13;9.33;;;19.40;99.90;;;;;;4951124;29;20492;-58
2022/06/12 06:03:07;;;;;;;10.50;9.73;;;19.60;99.90;;;;;;4955928;28;20449;-57
2022/06/12 06:05:35;;;;;;;10.37;9.50;;;19.70;99.90;;;;;;4950954;29;20886;-57
2022/06/12 06:08:02;;;;;;;9.70;9.00;;;19.90;99.90;;;;;;4979836;28;20559;-56
2022/06/12 06:10:28;;;;;;;9.30;8.60;;;20.20;99.90;;;;;;4970260;28;20422;-57
2022/06/12 06:12:54;;;;;;;10.07;9.37;;;20.40;99.90;;;;;;4967438;28;20445;-57
2022/06/12 06:15:21;;;;;;;9.83;9.23;;;20.50;99.90;;;;;;4970097;28;20193;-58
2022/06/12 06:17:47;;;;;;;9.60;8.80;;;20.50;99.90;;;;;;4969869;28;20409;-58
2022/06/12 06:20:17;;;;;;;10.47;9.53;;;20.70;99.90;;;;;;4965806;28;21006;-56
2022/06/12 06:22:42;;;;;;;10.07;9.07;;;20.80;99.90;;;;;;4972095;28;20860;-57
2022/06/12 06:25:09;;;;;;;9.53;8.73;;;20.90;99.90;;;;;;4972903;28;20522;-56
2022/06/12 06:27:34;;;;;;;9.40;8.80;;;20.90;99.90;;;;;;4973776;28;20175;-55
2022/06/12 06:30:01;;;;;;;8.60;7.90;;;21.00;99.90;;;;;;4971876;28;20937;-56
2022/06/12 06:32:26;;;;;;;10.03;9.20;;;21.10;99.90;;;;;;4973294;28;20178;-53
2022/06/12 06:34:52;;;;;;;10.30;9.50;;;21.20;99.90;;;;;;4972716;28;20797;-58
2022/06/12 06:37:17;;;;;;;10.57;9.77;;;21.20;99.90;;;;;;4966908;28;20225;-57
2022/06/12 06:39:43;;;;;;;10.50;9.70;;;21.30;99.90;;;;;;4966932;28;20316;-54
2022/06/12 06:42:10;;;;;;;9.37;8.77;;;21.60;99.90;;;;;;4967283;28;20227;-57
2022/06/12 06:47:20;;;;;;;9.60;9.00;;;21.90;99.90;;;;;;4972956;28;20462;-57
2022/06/12 06:49:47;;;;;;;9.60;9.00;;;21.90;99.90;;;;;;4968539;28;20988;-57
2022/06/12 06:52:12;;;;;;;9.13;8.53;;;22.00;99.90;;;;;;4965106;28;20196;-59
2022/06/12 06:54:38;;;;;;;10.23;9.27;;;22.10;99.90;;;;;;4972195;28;20445;-54
2022/06/12 06:57:06;;;;;;;9.20;8.50;;;22.20;99.90;;;;;;4972319;28;20682;-56
2022/06/12 06:59:32;;;;;;;9.70;9.07;;;22.20;99.90;;;;;;4971848;28;20201;-55
2022/06/12 07:01:58;;;;;;;9.40;8.80;;;22.40;99.90;;;;;;4970650;28;21007;-58
2022/06/12 07:04:23;;;;;;;9.60;8.90;;;22.60;99.90;;;;;;4971440;28;20559;-58
2022/06/12 07:06:49;;;;;;;9.77;8.83;;;22.60;99.90;;;;;;4968957;28;20725;-56
2022/06/12 07:09:15;;;;;;;8.80;8.20;;;22.70;99.90;;;;;;4979038;28;20189;-57
2022/06/12 07:11:40;;;;;;;9.30;8.67;;;23.00;99.90;;;;;;4971101;28;20264;-58
2022/06/12 07:14:06;;;;;;;8.70;8.10;;;23.30;99.90;;;;;;4971983;28;20255;-57
2022/06/12 07:16:33;;;;;;;9.13;8.53;;;23.50;98.60;;;;;;4961596;28;20186;-58
2022/06/12 07:18:59;;;;;;;9.27;8.67;;;23.50;97.40;;;;;;4967946;28;20192;-57
2022/06/12 07:21:25;;;;;;;8.93;8.27;;;23.50;97.50;;;;;;4969316;28;20438;-58
2022/06/12 07:23:51;;;;;;;9.00;8.40;;;23.60;97.20;;;;;;4972779;28;20432;-57
2022/06/12 07:26:30;;;;;;;9.37;8.80;;;23.70;96.80;;;;;;4971266;28;20472;-58
2022/06/12 07:28:56;;;;;;;9.67;8.90;;;23.80;96.80;;;;;;4972245;28;20185;-57
2022/06/12 07:31:23;;;;;;;8.47;7.90;;;24.00;96.40;;;;;;4950156;28;20552;-57
2022/06/12 07:33:49;;;;;;;9.13;8.53;;;24.20;95.80;;;;;;4963521;28;20910;-57
2022/06/12 07:36:16;;;;;;;9.73;9.13;;;24.30;95.80;;;;;;4974082;28;20454;-58
2022/06/12 07:38:44;;;;;;;10.43;9.63;;;24.40;95.50;;;;;;4976590;28;20502;-57
2022/06/12 07:41:11;;;;;;;9.73;9.13;;;24.30;95.30;;;;;;4971914;28;20433;-57
2022/06/12 07:43:39;;;;;;;9.37;8.73;;;24.30;95.20;;;;;;4965416;28;20445;-57
2022/06/12 07:46:07;;;;;;;9.47;8.70;;;24.30;95.20;;;;;;4971249;28;20950;-57
2022/06/12 07:48:33;;;;;;;9.33;8.70;;;24.50;95.30;;;;;;4971726;28;20473;-57
2022/06/12 07:51:01;;;;;;;9.10;8.40;;;24.50;95.00;;;;;;4972718;28;20537;-56
2022/06/12 07:53:27;;;;;;;9.37;8.70;;;24.70;94.60;;;;;;4963888;28;20442;-57
2022/06/12 07:55:53;;;;;;;8.30;7.70;;;24.90;94.30;;;;;;4973341;28;21061;-57
2022/06/12 07:58:23;;;;;;;9.60;9.00;;;25.00;94.20;;;;;;4969272;28;20274;-58
2022/06/12 08:00:49;;;;;;;9.10;8.50;;;25.00;93.50;;;;;;4972434;28;20776;-58
2022/06/12 08:03:15;;;;;;;9.43;8.70;;;25.10;93.00;;;;;;4973311;28;20434;-57
2022/06/12 08:05:41;;;;;;;8.87;8.20;;;25.20;92.90;;;;;;4970510;28;20483;-58
2022/06/12 08:08:07;;;;;;;9.00;8.40;;;25.10;92.90;;;;;;4972828;28;20186;-58
2022/06/12 08:10:33;;;;;;;9.30;8.70;;;24.90;93.00;;;;;;4972994;28;20222;-58
2022/06/12 08:13:02;;;;;;;9.30;8.70;;;24.90;93.20;;;;;;4971759;28;20223;-58
2022/06/12 08:15:28;;;;;;;9.17;8.50;;;25.00;93.60;;;;;;4964136;28;20429;-58
2022/06/12 08:17:56;;;;;;;8.77;8.17;;;25.20;93.00;;;;;;4957866;28;20504;-58
2022/06/12 08:20:25;;;;;;;8.93;8.33;;;25.40;93.30;;;;;;4948120;28;20198;-59
2022/06/12 08:23:26;;;;;;;8.80;8.20;;;25.50;93.30;;;;;;4948461;28;20731;-58
2022/06/12 08:25:55;;;;;;;9.53;8.70;;;25.80;93.20;;;;;;4958900;28;20558;-57
2022/06/12 08:28:22;;;;;;;9.27;8.57;;;25.90;93.10;;;;;;4948738;28;20942;-58
2022/06/12 08:30:47;;;;;;;8.60;8.10;;;26.10;92.20;;;;;;4961367;28;20446;-59
2022/06/12 08:33:13;;;;;;;8.60;8.00;;;26.30;91.20;;;;;;4948523;28;21544;-57
2022/06/12 08:35:39;;;;;;;9.00;8.47;;;26.60;91.10;;;;;;4945621;28;20189;-57
2022/06/12 08:38:05;;;;;;;7.90;7.50;;;26.90;87.60;;;;;;4954732;28;20216;-58
2022/06/12 08:40:43;;;;;;;7.50;7.10;;;27.10;86.60;;;;;;4954392;28;20856;-59
2022/06/12 08:43:13;;;;;;;8.80;8.13;;;27.20;82.00;;;;;;4958720;28;20197;-55
2022/06/12 08:45:45;;;;;;;7.43;6.93;;;27.30;79.90;;;;;;4971315;28;20471;-53
2022/06/12 08:48:48;;;;;;;8.70;8.10;;;27.60;76.70;;;;;;4975361;28;20419;-59
2022/06/12 08:51:19;;;;;;;7.90;7.50;;;27.60;70.40;;;;;;4958924;28;20424;-59
2022/06/12 08:54:06;;;;;;;7.87;7.37;;;27.60;68.30;;;;;;4956695;28;20774;-57
2022/06/12 08:56:55;;;;;;;7.67;7.27;;;27.70;67.90;;;;;;4953410;28;20802;-58
2022/06/12 08:59:27;;;;;;;7.40;6.90;;;28.00;68.30;;;;;;4951369;28;20422;-58
2022/06/12 09:01:53;;;;;;;6.70;6.20;;;28.20;64.80;;;;;;4956013;28;20544;-59
2022/06/12 09:04:21;;;;;;;7.17;6.77;;;28.50;64.10;;;;;;4994710;28;20499;-58
2022/06/12 09:07:15;;;;;;;7.50;6.83;;;28.80;62.90;;;;;;4955582;28;21038;-59
2022/06/12 09:10:01;;;;;;;6.37;5.97;;;29.10;56.90;;;;;;4966224;28;20496;-58
2022/06/12 09:12:52;;;;;;;6.20;5.90;;;29.30;56.70;;;;;;4968005;28;20451;-56
2022/06/12 09:15:36;;;;;;;6.63;6.33;;;29.70;50.90;;;;;;4968307;28;20439;-57
2022/06/12 09:18:38;;;;;;;6.20;5.90;;;29.80;51.50;;;;;;4957365;28;20505;-59
2022/06/12 09:21:18;;;;;;;6.80;6.40;;;29.80;50.20;;;;;;4968988;28;21149;-59
2022/06/12 09:24:05;;;;;;;6.37;6.07;;;29.80;48.30;;;;;;4954310;28;20423;-59
2022/06/12 09:26:49;;;;;;;6.27;5.90;;;29.60;48.40;;;;;;4952341;28;20464;-59
2022/06/12 09:29:15;;;;;;;5.97;5.67;;;29.30;47.60;;;;;;4955921;28;20424;-59
2022/06/12 09:31:54;;;;;;;6.30;6.00;;;29.10;48.40;;;;;;4957165;28;21008;-59
2022/06/12 09:34:42;;;;;;;6.30;5.90;;;29.10;49.20;;;;;;4957699;28;20189;-59
2022/06/12 09:40:29;;;;;;;6.20;5.70;;;29.00;45.20;;;;;;4951833;28;20445;-58
2022/06/12 09:42:59;;;;;;;6.47;6.07;;;28.90;47.60;;;;;;4949709;28;20417;-60
2022/06/12 09:45:40;;;;;;;6.30;5.90;;;29.10;45.80;;;;;;4952227;28;20472;-57
2022/06/12 09:48:13;;;;;;;5.10;4.80;;;29.20;45.80;;;;;;4966309;28;20530;-58
2022/06/12 09:50:51;;;;;;;5.73;5.30;;;29.20;43.20;;;;;;4952023;28;20594;-58
2022/06/12 09:53:35;;;;;;;5.67;5.30;;;29.10;41.70;;;;;;4952166;28;20450;-53
2022/06/12 09:56:38;;;;;;;6.10;5.80;;;29.00;42.90;;;;;;4949590;28;20524;-56
2022/06/12 09:59:25;;;;;;;6.00;5.60;;;29.10;44.20;;;;;;4978563;28;20523;-58
2022/06/12 10:01:55;;;;;;;6.00;5.60;;;29.10;43.50;;;;;;4972727;28;20518;-52
2022/06/12 10:04:30;;;;;;;5.20;4.90;;;29.20;43.10;;;;;;4973547;28;20404;-56
2022/06/12 10:07:01;;;;;;;5.77;5.30;;;29.20;43.90;;;;;;4968636;28;20451;-53
2022/06/12 10:09:35;;;;;;;6.10;5.73;;;29.30;43.30;;;;;;4968847;28;20432;-56
2022/06/12 10:12:07;;;;;;;6.17;5.87;;;29.40;41.70;;;;;;4967970;28;20436;-56
2022/06/12 10:14:44;;;;;;;5.70;5.40;;;29.40;42.70;;;;;;4972664;28;20428;-55
2022/06/12 10:17:23;;;;;;;5.70;5.30;;;29.50;41.90;;;;;;4972189;28;20551;-55
2022/06/12 10:20:33;;;;;;;6.20;5.90;;;29.50;39.70;;;;;;4984003;28;20440;-54
2022/06/12 10:22:59;;;;;;;6.30;5.73;;;29.40;41.60;;;;;;4977330;28;20539;-53
2022/06/12 10:25:35;;;;;;;5.93;5.57;;;29.50;41.90;;;;;;4972096;28;20955;-53
2022/06/12 10:28:19;;;;;;;5.50;5.20;;;29.70;40.20;;;;;;4997795;28;20523;-55
2022/06/12 10:30:57;;;;;;;5.93;5.63;;;29.60;40.10;;;;;;4970768;28;20428;-53
2022/06/12 10:33:42;;;;;;;6.03;5.73;;;29.40;40.30;;;;;;4972473;28;20443;-54
2022/06/12 10:36:23;;;;;;;5.67;5.37;;;29.60;41.20;;;;;;4987550;28;20451;-57
2022/06/12 10:38:49;;;;;;;6.20;5.60;;;29.80;40.10;;;;;;4972730;28;20412;-53
2022/06/12 10:41:27;;;;;;;6.20;5.80;;;29.90;38.40;;;;;;4980330;28;20816;-56
2022/06/12 10:43:56;;;;;;;6.07;5.57;;;29.80;37.60;;;;;;4960122;28;20427;-55
2022/06/12 10:46:30;;;;;;;6.37;6.07;;;29.70;37.90;;;;;;4971755;28;21008;-56
2022/06/12 10:49:15;;;;;;;6.27;5.87;;;29.80;38.90;;;;;;4960807;28;20435;-55
2022/06/12 10:51:41;;;;;;;5.93;5.63;;;29.90;38.40;;;;;;4970179;28;20523;-56
2022/06/12 10:54:12;;;;;;;6.27;5.90;;;30.20;37.20;;;;;;4962435;28;20831;-55
2022/06/12 10:57:03;;;;;;;5.53;5.23;;;30.30;38.10;;;;;;4971743;28;20464;-57
2022/06/12 10:59:47;;;;;;;5.43;5.23;;;30.40;34.70;;;;;;4970077;28;20447;-55
2022/06/12 11:02:31;;;;;;;6.00;5.60;;;30.30;34.10;;;;;;4971929;28;20436;-55
2022/06/12 11:05:34;;;;;;;5.80;5.50;;;29.90;34.30;;;;;;4969464;28;20509;-54
2022/06/12 11:08:32;;;;;;;6.30;5.90;;;30.00;38.20;;;;;;4972256;28;20448;-56
2022/06/12 11:11:21;;;;;;;6.30;6.00;;;30.30;38.00;;;;;;4970121;28;20499;-55
2022/06/12 11:14:03;;;;;;;6.80;6.40;;;30.60;37.70;;;;;;4967579;28;20427;-53
2022/06/12 11:16:56;;;;;;;6.60;6.20;;;30.80;35.00;;;;;;4969401;28;20427;-55
2022/06/12 11:19:59;;;;;;;5.47;5.20;;;30.60;34.70;;;;;;4965887;28;20432;-55
2022/06/12 11:22:49;;;;;;;6.30;6.00;;;30.40;35.40;;;;;;4961750;28;21004;-54
2022/06/12 11:25:25;;;;;;;5.87;5.60;;;30.60;35.80;;;;;;4958720;28;21158;-56
2022/06/12 11:28:14;;;;;;;6.10;5.80;;;30.70;35.60;;;;;;4960598;28;20943;-54
2022/06/12 11:31:11;;;;;;;6.13;5.83;;;30.60;36.00;;;;;;4968868;28;20957;-55
2022/06/12 11:33:48;;;;;;;6.57;6.17;;;30.80;37.50;;;;;;4976223;28;20512;-55
2022/06/12 11:36:39;;;;;;;7.03;6.63;;;31.10;38.30;;;;;;4963428;28;20775;-55
2022/06/12 11:39:18;;;;;;;6.97;6.43;;;31.40;37.60;;;;;;4959127;28;20808;-58
2022/06/12 11:42:02;;;;;;;6.93;6.43;;;31.60;37.20;;;;;;4972894;28;20503;-58
2022/06/12 11:44:45;;;;;;;5.90;5.60;;;31.70;37.10;;;;;;4950464;28;20623;-57
2022/06/12 11:47:27;;;;;;;7.13;6.70;;;31.90;37.20;;;;;;4959396;28;20564;-58
2022/06/12 11:50:07;;;;;;;7.10;6.70;;;31.90;37.20;;;;;;4956490;28;20422;-57
2022/06/12 11:52:50;;;;;;;7.17;6.77;;;31.90;36.70;;;;;;4952051;28;20433;-53
2022/06/12 11:55:50;;;;;;;7.00;6.60;;;31.80;37.50;;;;;;4952651;28;20459;-56
2022/06/12 11:58:54;;;;;;;7.63;7.23;;;31.80;38.20;;;;;;4953380;28;20580;-55
2022/06/12 12:01:35;;;;;;;7.00;6.70;;;31.80;37.50;;;;;;4955664;28;20471;-57
2022/06/12 12:04:34;;;;;;;7.20;6.80;;;31.90;38.10;;;;;;4971952;28;20979;-55
2022/06/12 12:07:17;;;;;;;6.67;6.33;;;32.10;37.50;;;;;;4958161;28;20441;-55
2022/06/12 12:10:07;;;;;;;6.97;6.57;;;32.10;37.30;;;;;;4954082;28;20457;-56
2022/06/12 12:12:40;;;;;;;7.53;7.00;;;32.30;36.70;;;;;;4953228;28;20434;-55
2022/06/12 12:15:28;;;;;;;7.63;7.13;;;32.30;37.10;;;;;;4949644;28;21151;-57
2022/06/12 12:17:56;;;;;;;7.43;7.00;;;32.30;36.90;;;;;;4954645;28;20500;-57
2022/06/12 12:20:40;;;;;;;7.33;6.90;;;32.30;37.60;;;;;;4955016;28;20420;-55
2022/06/12 12:23:26;;;;;;;7.10;6.70;;;32.50;36.80;;;;;;4955273;28;20425;-57
2022/06/12 12:26:21;;;;;;;7.40;6.90;;;32.50;36.80;;;;;;4965824;28;20469;-57
2022/06/12 12:28:49;;;;;;;7.50;7.10;;;32.60;36.70;;;;;;4981165;28;20458;-57
2022/06/12 12:31:16;;;;;;;7.73;7.30;;;32.70;36.70;;;;;;4977235;28;20435;-52
2022/06/12 12:33:45;;;;;;;7.57;7.17;;;32.90;35.80;;;;;;4975447;28;20455;-55
2022/06/12 12:41:52;;;;;;;7.13;6.83;;;33.40;36.50;;;;;;4953494;28;20504;-58
2022/06/12 12:44:47;;;;;;;7.63;7.13;;;33.60;35.60;;;;;;4953321;28;20433;-58
2022/06/12 12:47:22;;;;;;;7.60;7.10;;;33.70;34.20;;;;;;4950756;28;20548;-59
2022/06/12 12:49:49;;;;;;;7.60;7.20;;;33.70;34.90;;;;;;4944780;28;20413;-58
2022/06/12 12:52:23;;;;;;;7.77;7.27;;;33.80;34.50;;;;;;4942241;28;20409;-57
2022/06/12 12:54:50;;;;;;;7.13;6.73;;;34.00;34.10;;;;;;4944354;28;20508;-60
2022/06/12 12:57:19;;;;;;;7.43;7.03;;;34.30;34.30;;;;;;4942927;28;20485;-59
2022/06/12 12:59:49;;;;;;;7.20;6.80;;;34.70;32.90;;;;;;4943260;28;20430;-59
2022/06/12 13:02:59;;;;;;;8.43;7.83;;;34.80;32.10;;;;;;4943571;28;20480;-55
2022/06/12 13:05:48;;;;;;;7.60;7.20;;;35.00;31.50;;;;;;4957995;28;20639;-59
2022/06/12 13:08:41;;;;;;;7.70;7.30;;;35.10;31.30;;;;;;4965606;28;20498;-60
2022/06/12 13:11:10;;;;;;;7.47;7.07;;;35.40;31.40;;;;;;4965717;28;20436;-59
2022/06/12 13:13:50;;;;;;;7.57;7.17;;;35.90;29.90;;;;;;4963434;28;20446;-57
2022/06/12 13:16:22;;;;;;;7.17;6.77;;;36.40;29.40;;;;;;4969477;28;20832;-54
2022/06/12 13:19:20;;;;;;;7.17;6.67;;;36.90;28.20;;;;;;4965513;28;20444;-55
2022/06/12 13:22:10;;;;;;;6.93;6.53;;;36.80;28.30;;;;;;4961833;28;20420;-56
2022/06/12 13:24:50;;;;;;;7.47;6.87;;;37.20;27.40;;;;;;4956859;28;20436;-54
2022/06/12 13:27:25;;;;;;;6.50;6.20;;;37.40;26.80;;;;;;4969003;28;20471;-57
2022/06/12 13:29:52;;;;;;;6.73;6.43;;;37.50;27.40;;;;;;4969827;28;20416;-55
2022/06/12 13:32:23;;;;;;;6.30;6.00;;;37.90;26.50;;;;;;4965205;28;20757;-55
2022/06/12 13:35:02;;;;;;;6.87;6.20;;;38.40;26.00;;;;;;4969670;28;20417;-56